createdAt,value
2022-08-16T00:02:21.061Z,23.28
2022-08-16T00:04:47.486Z,23.25
2022-08-16T00:07:17.613Z,23.35
2022-08-16T00:09:43.945Z,23.17
2022-08-16T00:12:10.603Z,23.31
2022-08-16T00:14:37.015Z,23.38
2022-08-16T00:17:15.912Z,23.37
2022-08-16T00:19:47.604Z,23.37
2022-08-16T00:22:17.976Z,23.23
2022-08-16T00:24:47.163Z,23.28
2022-08-16T00:27:18.004Z,23.48
2022-08-16T00:29:44.401Z,23.40
2022-08-16T00:32:13.799Z,23.29
2022-08-16T00:34:52.590Z,23.31
2022-08-16T00:37:24.449Z,22.85
2022-08-16T00:39:58.233Z,23.20
2022-08-16T00:42:31.793Z,23.00
2022-08-16T00:45:25.119Z,23.00
2022-08-16T00:47:52.909Z,22.57
2022-08-16T00:50:36.210Z,22.62
2022-08-16T00:53:09.043Z,22.77
2022-08-16T00:55:39.954Z,22.62
2022-08-16T00:58:12.916Z,22.82
2022-08-16T01:00:44.691Z,22.28
2022-08-16T01:03:30.214Z,22.55
2022-08-16T01:05:59.096Z,22.81
2022-08-16T01:08:36.546Z,22.92
2022-08-16T01:11:05.350Z,22.86
2022-08-16T01:13:35.867Z,22.63
2022-08-16T01:16:20.097Z,22.48
2022-08-16T01:18:54.935Z,22.65
2022-08-16T01:21:46.011Z,22.68
2022-08-16T01:24:52.831Z,22.68
2022-08-16T01:27:24.084Z,22.44
2022-08-16T01:29:59.334Z,22.97
2022-08-16T01:32:31.901Z,22.74
2022-08-16T01:35:00.843Z,22.70
2022-08-16T01:37:27.188Z,22.45
2022-08-16T01:40:03.792Z,22.12
2022-08-16T01:42:33.896Z,22.38
2022-08-16T01:45:00.298Z,22.38
2022-08-16T01:47:28.183Z,22.52
2022-08-16T01:50:41.905Z,22.40
2022-08-16T01:52:46.490Z,22.47
2022-08-16T01:55:13.278Z,22.43
2022-08-16T01:57:40.967Z,22.33
2022-08-16T02:00:21.280Z,22.46
2022-08-16T02:02:56.054Z,22.28
2022-08-16T02:05:23.674Z,22.42
2022-08-16T02:07:51.917Z,22.54
2022-08-16T02:10:18.791Z,22.29
2022-08-16T02:12:52.043Z,22.13
2022-08-16T02:15:25.022Z,22.20
2022-08-16T02:17:52.947Z,22.48
2022-08-16T02:20:19.879Z,22.20
2022-08-16T02:22:53.662Z,22.33
2022-08-16T02:25:21.824Z,22.39
2022-08-16T02:27:50.820Z,22.10
2022-08-16T02:30:40.135Z,22.25
2022-08-16T02:33:11.570Z,22.34
2022-08-16T02:35:49.772Z,22.17
2022-08-16T02:38:21.656Z,22.26
2022-08-16T02:40:48.317Z,22.12
2022-08-16T02:43:15.775Z,22.16
2022-08-16T02:45:42.248Z,22.05
2022-08-16T02:48:29.330Z,22.36
2022-08-16T02:51:06.471Z,21.88
2022-08-16T02:53:44.646Z,21.92
2022-08-16T02:56:16.251Z,21.75
2022-08-16T02:58:49.345Z,21.94
2022-08-16T03:01:24.710Z,22.06
2022-08-16T03:04:40.087Z,22.12
2022-08-16T03:06:48.503Z,22.29
2022-08-16T03:09:17.279Z,21.59
2022-08-16T03:11:44.606Z,21.52
2022-08-16T03:14:12.310Z,21.72
2022-08-16T03:16:42.281Z,21.50
2022-08-16T03:19:26.075Z,22.12
2022-08-16T03:22:12.414Z,22.02
2022-08-16T03:24:46.195Z,21.72
2022-08-16T03:27:12.687Z,21.63
2022-08-16T03:29:40.215Z,21.72
2022-08-16T03:32:20.548Z,21.82
2022-08-16T03:34:50.073Z,21.83
2022-08-16T03:37:17.027Z,22.00
2022-08-16T03:39:43.513Z,21.87
2022-08-16T03:42:10.214Z,21.79
2022-08-16T03:44:43.811Z,21.97
2022-08-16T03:47:12.029Z,21.90
2022-08-16T03:49:38.543Z,21.67
2022-08-16T03:52:05.725Z,21.84
2022-08-16T03:54:32.054Z,21.66
2022-08-16T03:57:02.928Z,21.89
2022-08-16T03:59:32.118Z,22.01
2022-08-16T04:02:02.365Z,22.36
2022-08-16T04:04:33.572Z,22.05
2022-08-16T04:07:02.765Z,21.96
2022-08-16T04:09:35.357Z,22.01
2022-08-16T04:12:04.790Z,21.83
2022-08-16T04:14:38.303Z,21.32
2022-08-16T04:17:13.587Z,21.46
2022-08-16T04:19:45.479Z,21.53
2022-08-16T04:22:13.051Z,21.80
2022-08-16T04:24:39.451Z,22.04
2022-08-16T04:27:09.126Z,21.80
2022-08-16T04:29:44.142Z,21.54
2022-08-16T04:32:12.575Z,21.82
2022-08-16T04:34:40.471Z,22.15
2022-08-16T04:37:07.449Z,22.02
2022-08-16T04:39:45.927Z,21.35
2022-08-16T04:42:16.131Z,21.85
2022-08-16T04:44:53.937Z,22.04
2022-08-16T04:47:24.157Z,21.98
2022-08-16T04:49:52.484Z,22.16
2022-08-16T04:52:32.650Z,22.27
2022-08-16T04:55:01.279Z,22.20
2022-08-16T04:57:30.129Z,22.20
2022-08-16T04:59:56.747Z,22.25
2022-08-16T05:02:41.742Z,22.39
2022-08-16T05:05:17.888Z,22.36
2022-08-16T05:07:57.778Z,22.26
2022-08-16T05:10:24.475Z,21.97
2022-08-16T05:12:50.908Z,22.22
2022-08-16T05:15:18.838Z,22.20
2022-08-16T05:17:47.086Z,22.25
2022-08-16T05:20:39.403Z,22.05
2022-08-16T05:22:59.745Z,22.16
2022-08-16T05:25:29.638Z,22.30
2022-08-16T05:28:13.472Z,22.85
2022-08-16T05:30:40.776Z,23.06
2022-08-16T05:33:16.152Z,23.19
2022-08-16T05:35:43.515Z,22.92
2022-08-16T05:38:33.114Z,23.20
2022-08-16T05:41:00.889Z,22.52
2022-08-16T05:43:32.008Z,22.74
2022-08-16T05:46:29.056Z,23.04
2022-08-16T05:49:01.745Z,23.30
2022-08-16T05:51:37.609Z,22.84
2022-08-16T05:54:06.800Z,22.83
2022-08-16T05:56:34.106Z,23.22
2022-08-16T05:59:06.303Z,23.34
2022-08-16T06:01:38.016Z,23.44
2022-08-16T06:04:12.604Z,23.47
2022-08-16T06:06:41.524Z,23.23
2022-08-16T06:09:11.658Z,23.45
2022-08-16T06:11:43.097Z,23.85
2022-08-16T06:14:10.186Z,23.59
2022-08-16T06:16:36.508Z,23.51
2022-08-16T06:19:04.699Z,23.97
2022-08-16T06:21:36.922Z,24.39
2022-08-16T06:24:54.924Z,24.33
2022-08-16T06:26:57.821Z,23.73
2022-08-16T06:29:25.142Z,24.27
2022-08-16T06:31:51.847Z,24.49
2022-08-16T06:34:56.168Z,24.22
2022-08-16T06:37:05.887Z,24.48
2022-08-16T06:39:34.548Z,24.38
2022-08-16T06:42:18.287Z,24.52
2022-08-16T06:44:46.003Z,24.91
2022-08-16T06:47:12.827Z,24.55
2022-08-16T06:49:44.247Z,25.00
2022-08-16T06:53:00.047Z,24.99
2022-08-16T06:55:07.638Z,24.67
2022-08-16T06:57:40.379Z,24.92
2022-08-16T07:00:17.527Z,25.02
2022-08-16T07:02:52.227Z,25.30
2022-08-16T07:05:19.805Z,24.93
2022-08-16T07:07:47.682Z,25.08
2022-08-16T07:10:18.792Z,25.02
2022-08-16T07:13:04.029Z,25.31
2022-08-16T07:15:35.047Z,25.31
2022-08-16T07:18:01.577Z,25.51
2022-08-16T07:20:47.124Z,25.21
2022-08-16T07:23:14.865Z,24.79
2022-08-16T07:25:41.892Z,25.54
2022-08-16T07:28:11.856Z,25.87
2022-08-16T07:30:45.924Z,25.44
2022-08-16T07:33:16.300Z,25.64
2022-08-16T07:35:44.346Z,25.58
2022-08-16T07:38:19.818Z,25.35
2022-08-16T07:41:00.747Z,26.03
2022-08-16T07:43:28.751Z,26.23
2022-08-16T07:45:56.107Z,26.07
2022-08-16T07:48:22.500Z,26.25
2022-08-16T07:50:55.740Z,26.60
2022-08-16T07:53:24.376Z,26.37
2022-08-16T07:55:55.183Z,26.22
2022-08-16T07:58:34.926Z,27.70
2022-08-16T08:01:10.511Z,27.48
2022-08-16T08:03:47.677Z,29.68
2022-08-16T08:06:16.738Z,27.45
2022-08-16T08:08:51.700Z,28.44
2022-08-16T08:11:19.606Z,31.23
2022-08-16T08:13:48.367Z,35.24
2022-08-16T08:16:16.962Z,29.66
2022-08-16T08:18:50.543Z,29.97
2022-08-16T08:21:27.276Z,31.29
2022-08-16T08:23:54.762Z,28.78
2022-08-16T08:26:21.111Z,29.25
2022-08-16T08:28:47.463Z,28.74
2022-08-16T08:31:16.184Z,28.12
2022-08-16T08:33:47.118Z,27.95
2022-08-16T08:36:24.060Z,27.60
2022-08-16T08:38:59.697Z,27.42
2022-08-16T08:41:28.559Z,27.49
2022-08-16T08:43:56.708Z,26.87
2022-08-16T08:46:24.908Z,27.56
2022-08-16T08:48:59.445Z,27.51
2022-08-16T08:51:27.584Z,27.44
2022-08-16T08:53:58.749Z,27.84
2022-08-16T08:56:25.595Z,26.95
2022-08-16T08:58:58.219Z,26.82
2022-08-16T09:01:36.854Z,27.66
2022-08-16T09:04:14.342Z,27.32
2022-08-16T09:06:43.032Z,27.62
2022-08-16T09:09:16.992Z,27.51
2022-08-16T09:11:45.130Z,27.89
2022-08-16T09:14:24.219Z,28.28
2022-08-16T09:17:02.695Z,28.13
2022-08-16T09:19:33.875Z,27.14
2022-08-16T09:22:00.856Z,27.31
2022-08-16T09:24:46.830Z,29.13
2022-08-16T09:27:13.481Z,27.79
2022-08-16T09:29:45.361Z,28.06
2022-08-16T09:32:12.381Z,27.76
2022-08-16T09:34:38.801Z,27.83
2022-08-16T09:37:14.112Z,30.59
2022-08-16T09:39:49.633Z,31.69
2022-08-16T09:42:16.843Z,30.73
2022-08-16T09:45:10.643Z,28.05
2022-08-16T09:47:56.142Z,27.67
2022-08-16T09:50:22.856Z,26.97
2022-08-16T09:52:49.695Z,27.02
2022-08-16T09:55:16.153Z,27.82
2022-08-16T09:57:42.492Z,27.30
2022-08-16T10:00:42.317Z,27.09
2022-08-16T10:03:06.019Z,27.91
2022-08-16T10:05:35.519Z,27.99
2022-08-16T10:08:01.850Z,27.55
2022-08-16T10:10:48.234Z,28.11
2022-08-16T10:13:16.192Z,28.76
2022-08-16T10:15:54.950Z,27.97
2022-08-16T10:18:56.124Z,27.63
2022-08-16T10:21:08.993Z,27.98
2022-08-16T10:23:35.576Z,28.64
2022-08-16T10:27:17.380Z,28.79
2022-08-16T10:28:50.285Z,29.14
2022-08-16T10:31:45.441Z,28.17
2022-08-16T10:34:03.733Z,28.22
2022-08-16T10:36:39.420Z,28.84
2022-08-16T10:39:08.574Z,29.24
2022-08-16T10:41:35.320Z,29.04
2022-08-16T10:44:02.231Z,28.31
2022-08-16T10:46:39.651Z,29.02
2022-08-16T10:49:10.423Z,28.72
2022-08-16T10:52:02.364Z,28.04
2022-08-16T10:54:29.829Z,28.20
2022-08-16T10:57:00.443Z,29.07
2022-08-16T10:59:32.763Z,28.96
2022-08-16T11:05:08.524Z,28.65
2022-08-16T11:07:51.382Z,29.19
2022-08-16T11:13:58.218Z,28.50
2022-08-16T11:19:05.195Z,28.23
2022-08-16T11:21:33.128Z,29.53
2022-08-16T11:24:01.545Z,28.89
2022-08-16T11:26:29.029Z,29.41
2022-08-16T11:31:45.420Z,30.30
2022-08-16T11:34:16.754Z,29.04
2022-08-16T11:36:53.713Z,29.59
2022-08-16T11:39:26.934Z,28.30
2022-08-16T11:41:54.915Z,28.51
2022-08-16T11:44:56.106Z,28.79
2022-08-16T11:47:08.728Z,29.58
2022-08-16T11:49:35.094Z,29.22
2022-08-16T11:52:01.455Z,28.00
2022-08-16T11:54:36.402Z,28.24
2022-08-16T11:57:04.011Z,28.45
2022-08-16T11:59:36.511Z,28.62
2022-08-16T12:02:32.345Z,29.18
2022-08-16T12:04:54.187Z,29.82
2022-08-16T12:07:21.278Z,30.45
2022-08-16T12:09:50.775Z,29.21
2022-08-16T12:12:19.580Z,30.06
2022-08-16T12:14:45.904Z,29.74
2022-08-16T12:17:12.204Z,29.81
2022-08-16T12:19:38.585Z,29.21
2022-08-16T12:22:19.140Z,28.47
2022-08-16T12:24:51.985Z,27.81
2022-08-16T12:27:20.308Z,28.57
2022-08-16T12:29:49.727Z,27.75
2022-08-16T12:32:35.818Z,27.73
2022-08-16T12:35:04.554Z,28.39
2022-08-16T12:37:31.669Z,28.85
2022-08-16T12:39:58.153Z,29.24
2022-08-16T12:42:34.791Z,28.54
2022-08-16T12:45:05.078Z,28.24
2022-08-16T12:47:31.540Z,28.49
2022-08-16T12:49:58.264Z,28.68
2022-08-16T12:52:33.076Z,27.85
2022-08-16T12:55:01.420Z,29.26
2022-08-16T12:57:36.533Z,28.69
2022-08-16T13:00:08.145Z,28.65
2022-08-16T13:02:36.325Z,28.96
2022-08-16T13:05:03.691Z,29.45
2022-08-16T13:07:37.583Z,29.27
2022-08-16T13:10:20.727Z,29.26
2022-08-16T13:12:51.445Z,28.83
2022-08-16T13:15:21.780Z,29.23
2022-08-16T13:17:50.608Z,29.41
2022-08-16T13:20:20.870Z,30.60
2022-08-16T13:22:58.897Z,30.90
2022-08-16T13:25:26.448Z,30.25
2022-08-16T13:28:02.987Z,30.62
2022-08-16T13:30:37.307Z,30.74
2022-08-16T13:33:11.334Z,31.49
2022-08-16T13:35:42.891Z,30.88
2022-08-16T13:38:09.901Z,30.32
2022-08-16T13:40:37.454Z,30.88
2022-08-16T13:43:04.140Z,30.94
2022-08-16T13:45:36.235Z,31.49
2022-08-16T13:48:04.399Z,31.42
2022-08-16T13:50:51.583Z,31.37
2022-08-16T13:53:18.577Z,30.14
2022-08-16T13:55:58.453Z,29.85
2022-08-16T13:58:34.811Z,30.50
2022-08-16T14:01:04.489Z,30.91
2022-08-16T14:03:36.891Z,29.61
2022-08-16T14:06:03.594Z,29.78
2022-08-16T14:08:29.965Z,30.09
2022-08-16T14:10:56.408Z,29.90
2022-08-16T14:13:23.495Z,30.54
2022-08-16T14:15:50.275Z,30.82
2022-08-16T14:18:20.056Z,30.92
2022-08-16T14:20:48.458Z,31.03
2022-08-16T14:23:15.365Z,31.05
2022-08-16T14:25:41.860Z,29.62
2022-08-16T14:28:09.740Z,29.60
2022-08-16T14:30:36.630Z,30.05
2022-08-16T14:33:06.865Z,30.20
2022-08-16T14:35:48.554Z,30.16
2022-08-16T14:38:18.127Z,28.83
2022-08-16T14:40:51.093Z,29.34
2022-08-16T14:43:21.133Z,29.64
2022-08-16T14:45:50.330Z,29.53
2022-08-16T14:48:21.511Z,30.39
2022-08-16T14:50:51.783Z,29.81
2022-08-16T14:53:18.098Z,29.26
2022-08-16T14:55:44.409Z,29.14
2022-08-16T14:58:19.532Z,29.51
2022-08-16T15:00:50.329Z,29.45
2022-08-16T15:03:18.856Z,28.86
2022-08-16T15:05:48.257Z,29.49
2022-08-16T15:08:15.188Z,29.89
2022-08-16T15:10:45.691Z,28.58
2022-08-16T15:13:15.111Z,28.65
2022-08-16T15:15:42.764Z,28.75
2022-08-16T15:18:11.761Z,28.80
2022-08-16T15:20:39.813Z,29.33
2022-08-16T15:23:08.229Z,28.82
2022-08-16T15:25:41.418Z,28.78
2022-08-16T15:28:23.951Z,28.84
2022-08-16T15:31:00.149Z,28.75
2022-08-16T15:33:27.511Z,28.78
2022-08-16T15:35:55.401Z,28.85
2022-08-16T15:38:57.693Z,28.48
2022-08-16T15:41:34.127Z,28.57
2022-08-16T15:44:05.149Z,28.69
2022-08-16T15:46:55.543Z,29.27
2022-08-16T15:49:34.809Z,29.37
2022-08-16T15:52:15.776Z,29.75
2022-08-16T15:54:53.576Z,29.73
2022-08-16T15:57:24.394Z,29.74
2022-08-16T15:59:52.808Z,29.35
2022-08-16T16:02:29.305Z,30.15
2022-08-16T16:05:00.674Z,29.21
2022-08-16T16:07:27.965Z,29.55
2022-08-16T16:09:59.398Z,29.05
2022-08-16T16:15:16.747Z,29.53
2022-08-16T16:17:43.078Z,29.36
2022-08-16T16:20:14.839Z,29.13
2022-08-16T16:22:42.129Z,29.88
2022-08-16T16:25:09.155Z,29.88
2022-08-16T16:27:36.222Z,29.23
2022-08-16T16:30:33.590Z,29.77
2022-08-16T16:32:51.505Z,29.68
2022-08-16T16:35:17.845Z,29.73
2022-08-16T16:37:44.285Z,30.12
2022-08-16T16:40:12.961Z,30.20
2022-08-16T16:42:50.871Z,29.95
2022-08-16T16:45:19.364Z,28.87
2022-08-16T16:47:45.844Z,28.47
2022-08-16T16:50:12.553Z,28.56
2022-08-16T16:52:44.127Z,29.00
2022-08-16T16:55:12.409Z,28.55
2022-08-16T16:57:38.993Z,28.91
2022-08-16T17:00:29.700Z,29.00
2022-08-16T17:02:56.327Z,29.03
2022-08-16T17:05:24.028Z,29.08
2022-08-16T17:07:50.451Z,28.87
2022-08-16T17:10:45.973Z,29.19
2022-08-16T17:13:05.449Z,28.85
2022-08-16T17:15:36.432Z,28.51
2022-08-16T17:18:04.304Z,28.72
2022-08-16T17:20:50.056Z,28.67
2022-08-16T17:23:19.656Z,29.14
2022-08-16T17:25:45.989Z,28.56
2022-08-16T17:28:58.570Z,28.33
2022-08-16T17:31:05.550Z,28.57
2022-08-16T17:33:37.044Z,28.22
2022-08-16T17:36:05.477Z,28.67
2022-08-16T17:38:43.873Z,28.76
2022-08-16T17:41:12.387Z,28.55
2022-08-16T17:43:44.577Z,28.58
2022-08-16T17:46:51.527Z,28.43
2022-08-16T17:48:58.460Z,28.39
2022-08-16T17:51:24.903Z,28.22
2022-08-16T17:53:51.255Z,28.22
2022-08-16T17:56:17.653Z,28.99
2022-08-16T17:58:43.979Z,28.71
2022-08-16T18:01:10.472Z,28.41
2022-08-16T18:04:07.803Z,28.29
2022-08-16T18:06:25.953Z,28.52
2022-08-16T18:09:00.256Z,27.88
2022-08-16T18:11:28.276Z,28.54
2022-08-16T18:13:55.035Z,27.88
2022-08-16T18:16:21.461Z,28.28
2022-08-16T18:18:47.797Z,28.49
2022-08-16T18:21:14.996Z,28.09
2022-08-16T18:23:41.456Z,28.29
2022-08-16T18:26:08.129Z,28.22
2022-08-16T18:28:34.684Z,27.73
2022-08-16T18:31:05.554Z,27.86
2022-08-16T18:33:33.055Z,27.42
2022-08-16T18:36:05.786Z,27.83
2022-08-16T18:38:47.915Z,27.56
2022-08-16T18:41:14.614Z,27.77
2022-08-16T18:44:22.868Z,27.83
2022-08-16T18:46:27.331Z,27.41
2022-08-16T18:48:53.637Z,27.31
2022-08-16T18:51:24.808Z,26.96
2022-08-16T18:53:51.669Z,27.23
2022-08-16T18:56:17.972Z,26.79
2022-08-16T18:58:44.300Z,26.98
2022-08-16T19:01:10.692Z,26.94
2022-08-16T19:03:37.060Z,26.40
2022-08-16T19:06:11.462Z,26.66
2022-08-16T19:08:41.455Z,26.94
2022-08-16T19:11:13.375Z,26.71
2022-08-16T19:13:41.002Z,26.95
2022-08-16T19:16:07.449Z,26.52
2022-08-16T19:18:36.335Z,26.68
2022-08-16T19:21:04.406Z,26.77
2022-08-16T19:23:32.546Z,26.62
2022-08-16T19:26:03.430Z,26.78
2022-08-16T19:28:51.641Z,26.36
2022-08-16T19:31:28.755Z,26.57
2022-08-16T19:33:56.439Z,26.29
2022-08-16T19:36:31.172Z,26.55
2022-08-16T19:39:04.119Z,26.26
2022-08-16T19:41:33.262Z,26.36
2022-08-16T19:43:59.604Z,26.08
2022-08-16T19:46:25.967Z,26.14
2022-08-16T19:48:52.282Z,25.85
2022-08-16T19:51:21.584Z,25.96
2022-08-16T19:53:48.073Z,26.41
2022-08-16T19:56:14.700Z,25.97
2022-08-16T19:58:51.155Z,25.85
2022-08-16T20:01:27.429Z,26.06
2022-08-16T20:03:53.776Z,26.27
2022-08-16T20:06:35.824Z,26.28
2022-08-16T20:09:04.897Z,26.18
2022-08-16T20:11:31.229Z,26.10
2022-08-16T20:13:57.570Z,26.12
2022-08-16T20:16:24.011Z,26.40
2022-08-16T20:18:50.327Z,26.18
2022-08-16T20:21:16.705Z,26.35
2022-08-16T20:23:43.108Z,26.03
2022-08-16T20:26:09.485Z,25.86
2022-08-16T20:28:52.943Z,25.82
2022-08-16T20:31:24.522Z,26.06
2022-08-16T20:33:51.927Z,25.80
2022-08-16T20:36:18.248Z,26.30
2022-08-16T20:38:45.289Z,25.84
2022-08-16T20:41:14.031Z,26.10
2022-08-16T20:43:40.329Z,25.73
2022-08-16T20:46:06.755Z,25.92
2022-08-16T20:48:33.071Z,25.79
2022-08-16T20:50:59.405Z,25.58
2022-08-16T20:53:26.979Z,25.70
2022-08-16T20:55:53.380Z,25.72
2022-08-16T20:58:19.706Z,25.55
2022-08-16T21:00:46.038Z,25.43
2022-08-16T21:03:13.255Z,25.61
2022-08-16T21:05:39.760Z,25.89
2022-08-16T21:08:27.912Z,25.54
2022-08-16T21:10:52.520Z,25.47
2022-08-16T21:13:19.125Z,25.35
2022-08-16T21:15:45.497Z,25.36
2022-08-16T21:18:11.875Z,25.73
2022-08-16T21:20:38.543Z,25.31
2022-08-16T21:23:07.502Z,25.46
2022-08-16T21:25:35.606Z,25.46
2022-08-16T21:28:38.796Z,25.56
2022-08-16T21:30:50.827Z,25.28
2022-08-16T21:33:18.925Z,24.86
2022-08-16T21:35:47.243Z,24.83
2022-08-16T21:38:29.553Z,24.96
2022-08-16T21:40:57.266Z,24.86
2022-08-16T21:43:26.415Z,25.12
2022-08-16T21:45:55.016Z,24.84
2022-08-16T21:48:34.830Z,25.02
2022-08-16T21:51:08.300Z,24.84
2022-08-16T21:53:35.875Z,24.89
2022-08-16T21:56:03.291Z,24.71
2022-08-16T21:58:30.342Z,24.67
2022-08-16T22:00:56.812Z,24.97
2022-08-16T22:03:23.677Z,24.87
2022-08-16T22:06:11.075Z,24.43
2022-08-16T22:08:48.055Z,24.31
2022-08-16T22:11:20.438Z,24.83
2022-08-16T22:13:56.400Z,24.35
2022-08-16T22:16:36.852Z,24.45
2022-08-16T22:19:05.019Z,24.42
2022-08-16T22:21:32.523Z,24.25
2022-08-16T22:23:59.261Z,24.55
2022-08-16T22:26:30.005Z,24.72
2022-08-16T22:28:59.068Z,24.30
2022-08-16T22:31:25.562Z,24.78
2022-08-16T22:33:51.953Z,24.44
2022-08-16T22:36:18.320Z,24.48
2022-08-16T22:38:53.620Z,24.46
2022-08-16T22:41:22.262Z,24.59
2022-08-16T22:43:48.581Z,24.50
2022-08-16T22:46:15.005Z,24.62
2022-08-16T22:48:42.714Z,24.23
2022-08-16T22:51:09.417Z,24.33
2022-08-16T22:53:37.350Z,24.25
2022-08-16T22:56:04.499Z,24.11
2022-08-16T22:58:36.676Z,24.08
2022-08-16T23:01:06.211Z,24.30
2022-08-16T23:03:33.208Z,24.28
2022-08-16T23:05:59.703Z,23.96
2022-08-16T23:08:38.652Z,24.15
2022-08-16T23:11:09.292Z,23.79
2022-08-16T23:13:35.897Z,23.78
2022-08-16T23:16:11.110Z,23.91
2022-08-16T23:18:40.219Z,24.02
2022-08-16T23:21:10.347Z,24.48
2022-08-16T23:23:37.439Z,23.94
2022-08-16T23:26:44.975Z,24.12
2022-08-16T23:28:51.673Z,23.33
2022-08-16T23:31:18.348Z,23.42
2022-08-16T23:33:44.779Z,23.04
2022-08-16T23:36:11.336Z,23.62
2022-08-16T23:38:39.373Z,23.20
2022-08-16T23:41:11.321Z,23.55
2022-08-16T23:43:39.858Z,23.11
2022-08-16T23:46:06.180Z,23.04
2022-08-16T23:50:01.003Z,22.81
2022-08-16T23:51:21.125Z,23.41
2022-08-16T23:53:47.497Z,23.24
2022-08-16T23:56:19.975Z,23.20
2022-08-16T23:58:54.394Z,23.41
